Time;durP1;ratioP1;P1;durP2;ratioP2;P2;SDS_P1;SDS_P2;PMS_P1;PMS_P2;Temp;Humidity;BMP_temperature;BMP_pressure;BME280_temperature;BME280_humidity;BME280_pressure;Samples;Min_cycle;Max_cycle;Signal;HPM_P1;HPM_P2
2023/12/25 00:14:21;;;;;;;29.92;16.70;;;12.60;96.70;;;;;;4893237;29;20581;-81
2023/12/25 00:18:19;;;;;;;28.20;16.38;;;12.60;96.70;;;;;;4838205;29;20512;-81
2023/12/25 00:21:19;;;;;;;30.33;17.08;;;12.60;96.70;;;;;;4853007;29;20622;-81
2023/12/25 00:37:23;;;;;;;30.13;17.98;;;12.60;96.70;;;;;;4826021;29;20221;-81
2023/12/25 01:11:22;;;;;;;28.60;14.02;;;12.50;96.70;;;;;;5104695;27;20040;-81
2023/12/25 01:15:19;;;;;;;27.58;13.05;;;12.40;96.70;;;;;;5014745;28;20164;-81
2023/12/25 01:30:22;;;;;;;24.98;12.57;;;12.40;96.70;;;;;;4913726;29;20471;-81
2023/12/25 01:34:34;;;;;;;22.42;10.95;;;12.40;96.70;;;;;;4861269;29;20185;-81
2023/12/25 01:42:47;;;;;;;23.63;12.15;;;12.40;96.70;;;;;;4905837;29;20569;-81
2023/12/25 02:00:20;;;;;;;25.90;13.60;;;12.30;96.70;;;;;;4997034;28;20737;-81
2023/12/25 02:05:02;;;;;;;;;;;;;;;;;;;;;
2023/12/25 02:13:00;;;;;;;23.15;12.65;;;12.30;96.70;;;;;;4918707;29;20086;-80
2023/12/25 02:20:25;;;;;;;20.85;11.80;;;12.30;96.70;;;;;;4937883;28;20058;-80
2023/12/25 02:25:25;;;;;;;;;;;;;;;;;;;;;
2023/12/25 02:38:10;;;;;;;;;;;;;;;;;;;;;
2023/12/25 02:42:11;;;;;;;21.58;11.63;;;12.30;96.70;;;;;;4865477;29;20048;-81
2023/12/25 02:50:36;;;;;;;23.15;11.27;;;12.20;96.70;;;;;;4758941;30;20059;-80
2023/12/25 03:07:53;;;;;;;24.45;11.75;;;12.20;96.70;;;;;;5091777;28;20047;-80
2023/12/25 03:15:27;;;;;;;;;;;;;;;;;;;;;
2023/12/25 03:28:22;;;;;;;22.13;12.25;;;12.20;96.70;;;;;;4997408;28;20116;-81
2023/12/25 03:41:04;;;;;;;;;;;;;;;;;;;;;
2023/12/25 03:45:24;;;;;;;21.35;12.05;;;12.10;96.70;;;;;;4870147;29;20454;-81
2023/12/25 03:57:24;;;;;;;24.52;12.20;;;12.10;96.70;;;;;;4734784;30;20307;-80
2023/12/25 04:09:56;;;;;;;;;;;;;;;;;;;;;
2023/12/25 04:25:23;;;;;;;22.83;11.48;;;12.10;96.70;;;;;;5025524;28;20044;-81
2023/12/25 04:27:52;;;;;;;24.60;12.13;;;12.20;96.70;;;;;;5075586;28;20151;-81
2023/12/25 04:30:32;;;;;;;22.90;13.25;;;12.20;96.70;;;;;;5061660;28;20148;-81
2023/12/25 04:33:30;;;;;;;20.38;11.68;;;12.10;96.70;;;;;;5062697;28;20881;-81
2023/12/25 04:36:03;;;;;;;20.95;12.27;;;12.10;96.70;;;;;;5064652;28;20081;-80
2023/12/25 05:04:58;;;;;;;18.60;11.48;;;12.10;96.70;;;;;;4971305;28;20151;-81
2023/12/25 05:09:13;;;;;;;20.65;11.23;;;12.00;96.70;;;;;;4956189;28;20078;-80
2023/12/25 05:21:54;;;;;;;22.20;11.10;;;12.00;96.70;;;;;;4707512;30;20106;-81
2023/12/25 05:24:26;;;;;;;21.05;10.52;;;12.00;96.70;;;;;;4774167;29;20070;-81
2023/12/25 05:26:55;;;;;;;20.88;10.68;;;12.00;96.70;;;;;;4827796;29;20063;-81
2023/12/25 05:29:24;;;;;;;23.35;11.90;;;12.00;96.70;;;;;;4860370;29;20060;-82
2023/12/25 05:32:25;;;;;;;17.98;10.40;;;11.90;96.70;;;;;;4844110;29;20061;-81
2023/12/25 05:35:29;;;;;;;17.05;10.10;;;11.90;96.70;;;;;;4886218;29;20542;-81
2023/12/25 05:38:34;;;;;;;22.25;11.30;;;11.90;96.70;;;;;;4936699;28;20060;-81
2023/12/25 05:45:38;;;;;;;;;;;;;;;;;;;;;
2023/12/25 05:49:38;;;;;;;15.75;8.88;;;11.90;96.70;;;;;;4916931;29;20066;-81
2023/12/25 06:09:23;;;;;;;16.65;8.45;;;11.80;96.70;;;;;;5082031;28;20517;-81
2023/12/25 06:17:23;;;;;;;15.98;7.60;;;11.80;96.70;;;;;;4999880;28;20222;-82
2023/12/25 07:10:25;;;;;;;13.02;6.28;;;11.80;96.70;;;;;;4743344;30;20096;-81
2023/12/25 07:13:02;;;;;;;15.40;6.78;;;11.80;96.70;;;;;;4736342;30;20514;-81
2023/12/25 07:16:56;;;;;;;;;;;;;;;;;;;;;
2023/12/25 07:19:55;;;;;;;11.82;5.53;;;11.80;96.70;;;;;;4856666;29;20063;-81
2023/12/25 07:22:27;;;;;;;11.88;6.40;;;11.80;96.70;;;;;;4920771;29;20070;-81
2023/12/25 07:24:56;;;;;;;11.80;6.53;;;11.80;96.70;;;;;;4927121;28;20058;-81
2023/12/25 07:27:24;;;;;;;11.95;5.90;;;11.80;96.70;;;;;;4967947;28;20054;-81
2023/12/25 07:29:53;;;;;;;14.13;6.22;;;11.90;96.70;;;;;;4976997;28;20057;-81
2023/12/25 07:32:22;;;;;;;10.18;5.63;;;11.90;96.70;;;;;;5017649;28;20076;-81
2023/12/25 07:35:01;;;;;;;14.00;7.45;;;11.90;96.70;;;;;;5010337;28;20057;-81
2023/12/25 07:37:33;;;;;;;12.90;7.15;;;11.90;96.70;;;;;;5027121;28;20111;-81
2023/12/25 07:40:03;;;;;;;12.48;7.00;;;11.90;96.70;;;;;;5016697;28;20123;-81
2023/12/25 07:42:31;;;;;;;15.40;7.28;;;11.90;96.70;;;;;;5017605;28;20056;-81
2023/12/25 07:45:00;;;;;;;14.93;6.97;;;11.90;96.70;;;;;;5065657;28;20057;-81
2023/12/25 07:47:29;;;;;;;12.88;7.22;;;11.80;96.70;;;;;;5059282;28;20060;-81
2023/12/25 07:49:59;;;;;;;14.05;7.65;;;11.80;96.70;;;;;;5089084;28;20651;-80
2023/12/25 07:52:27;;;;;;;17.20;8.60;;;11.80;96.70;;;;;;5061835;28;20087;-81
2023/12/25 07:55:12;;;;;;;16.05;8.13;;;11.80;96.70;;;;;;5041445;28;20052;-81
2023/12/25 07:57:59;;;;;;;;;;;;;;;;;;;;;
2023/12/25 08:00:30;;;;;;;14.27;7.93;;;11.90;96.70;;;;;;5072242;28;20566;-81
2023/12/25 08:02:59;;;;;;;16.40;8.80;;;11.90;96.70;;;;;;5081283;28;20058;-81
2023/12/25 08:05:29;;;;;;;18.35;9.85;;;11.90;96.70;;;;;;5095904;28;20048;-81
2023/12/25 08:07:57;;;;;;;18.63;9.90;;;11.90;96.70;;;;;;5071504;28;20052;-81
2023/12/25 08:10:25;;;;;;;18.40;9.05;;;12.00;96.70;;;;;;5048297;28;20052;-81
2023/12/25 08:13:16;;;;;;;19.70;10.55;;;12.00;96.70;;;;;;5053058;28;20056;-81
2023/12/25 08:15:51;;;;;;;22.17;10.05;;;12.00;96.70;;;;;;5085289;28;20532;-81
2023/12/25 08:18:23;;;;;;;13.52;8.68;;;12.00;96.70;;;;;;5051209;28;20058;-81
2023/12/25 08:20:52;;;;;;;22.42;12.02;;;12.10;96.70;;;;;;5075951;28;20061;-81
2023/12/25 08:23:21;;;;;;;17.98;10.13;;;12.10;96.70;;;;;;5060186;28;20052;-80
2023/12/25 08:26:28;;;;;;;17.52;10.00;;;12.10;96.70;;;;;;5077860;28;20094;-80
2023/12/25 08:29:42;;;;;;;;;;;;;;;;;;;;;
2023/12/25 08:33:50;;;;;;;;;;;;;;;;;;;;;
2023/12/25 08:37:25;;;;;;;22.60;11.80;;;12.20;96.70;;;;;;5052815;28;20045;-80
2023/12/25 08:40:25;;;;;;;20.52;11.52;;;12.30;96.70;;;;;;5043221;28;20139;-80
2023/12/25 08:42:59;;;;;;;23.30;10.77;;;12.30;96.70;;;;;;5046679;28;20048;-80
2023/12/25 08:45:48;;;;;;;17.13;10.63;;;12.40;96.70;;;;;;5059073;28;20064;-81
2023/12/25 08:48:29;;;;;;;19.15;11.30;;;12.40;96.70;;;;;;5068744;28;20600;-80
2023/12/25 08:51:52;;;;;;;26.77;11.48;;;12.40;96.70;;;;;;5062318;28;20056;-80
2023/12/25 08:54:45;;;;;;;26.67;11.80;;;12.40;96.70;;;;;;5056959;28;20129;-81
2023/12/25 08:57:48;;;;;;;23.77;11.43;;;12.40;96.70;;;;;;5044019;28;20055;-81
2023/12/25 09:00:18;;;;;;;18.67;10.93;;;12.40;96.70;;;;;;5056416;28;20099;-79
2023/12/25 09:02:47;;;;;;;19.70;10.77;;;12.50;96.70;;;;;;5047740;28;20088;-80
2023/12/25 09:05:16;;;;;;;20.83;10.65;;;12.50;96.70;;;;;;5069700;28;20056;-78
2023/12/25 09:07:44;;;;;;;19.80;10.90;;;12.50;96.70;;;;;;5030689;28;20409;-81
2023/12/25 09:10:14;;;;;;;23.88;11.30;;;12.60;96.70;;;;;;5056741;28;20052;-80
2023/12/25 09:12:58;;;;;;;18.33;10.40;;;12.60;96.70;;;;;;5048996;28;20048;-79
2023/12/25 09:15:27;;;;;;;18.63;10.65;;;12.60;96.70;;;;;;5056248;28;20073;-79
2023/12/25 09:17:59;;;;;;;17.38;9.30;;;12.60;96.70;;;;;;5035104;28;20052;-78
2023/12/25 09:29:38;;;;;;;20.33;10.10;;;12.80;96.70;;;;;;4806626;29;20052;-80
2023/12/25 09:33:16;;;;;;;;;;;12.80;96.70;;;;;;4724135;29;20099;-81
2023/12/25 09:36:18;;;;;;;21.83;10.23;;;12.90;96.70;;;;;;4803954;29;19928;-81
2023/12/25 09:38:58;;;;;;;23.63;13.10;;;12.90;96.70;;;;;;4888693;29;20479;-81
2023/12/25 09:41:32;;;;;;;23.30;12.07;;;12.90;96.70;;;;;;4933785;28;20062;-81
2023/12/25 09:44:01;;;;;;;20.55;13.02;;;12.90;96.70;;;;;;4937022;28;20058;-79
2023/12/25 09:46:35;;;;;;;29.40;17.15;;;12.90;96.70;;;;;;4950122;28;20487;-79
2023/12/25 09:49:05;;;;;;;31.35;16.00;;;13.00;96.70;;;;;;4917589;29;20060;-80
2023/12/25 09:51:39;;;;;;;23.17;13.88;;;13.00;96.70;;;;;;4927876;28;20511;-81
2023/12/25 09:54:08;;;;;;;34.70;20.05;;;13.10;96.70;;;;;;4927273;28;20071;-80
2023/12/25 09:56:51;;;;;;;28.73;15.50;;;13.10;96.70;;;;;;4956465;28;20066;-81
2023/12/25 09:59:21;;;;;;;25.30;14.25;;;13.10;96.70;;;;;;4942962;29;20059;-81
2023/12/25 10:01:55;;;;;;;30.05;15.95;;;13.20;96.70;;;;;;5015791;28;20060;-79
2023/12/25 10:04:26;;;;;;;28.05;16.38;;;13.20;96.70;;;;;;5041098;28;20040;-78
2023/12/25 10:06:57;;;;;;;27.63;14.05;;;13.20;96.70;;;;;;5063619;28;20150;-82
2023/12/25 10:09:33;;;;;;;26.00;14.13;;;13.20;96.70;;;;;;5060028;28;20044;-82
2023/12/25 10:12:02;;;;;;;29.10;14.77;;;13.30;96.70;;;;;;5063574;28;20057;-81
2023/12/25 10:14:46;;;;;;;23.38;11.68;;;13.30;96.70;;;;;;5058759;28;20135;-80
2023/12/25 10:17:19;;;;;;;21.73;12.63;;;13.40;96.70;;;;;;5067909;28;20883;-79
2023/12/25 10:20:00;;;;;;;20.98;11.75;;;13.50;96.70;;;;;;5056556;28;20064;-81
2023/12/25 10:22:57;;;;;;;20.25;12.15;;;13.50;96.70;;;;;;5069931;28;20058;-83
2023/12/25 10:26:05;;;;;;;24.90;12.93;;;13.60;96.70;;;;;;5049671;28;20145;-84
2023/12/25 10:28:46;;;;;;;23.80;11.90;;;13.70;96.70;;;;;;5061181;28;20063;-81
2023/12/25 10:32:35;;;;;;;21.98;10.65;;;13.70;96.70;;;;;;4998434;28;20053;-80
2023/12/25 10:36:33;;;;;;;23.83;9.27;;;13.80;96.70;;;;;;4980785;28;20066;-81
2023/12/25 10:39:07;;;;;;;18.80;9.18;;;13.80;96.70;;;;;;5052419;28;20053;-87
2023/12/25 10:41:42;;;;;;;22.75;9.25;;;13.90;96.70;;;;;;5033450;28;20057;-86
2023/12/25 10:44:11;;;;;;;22.40;9.68;;;13.90;96.70;;;;;;5014969;28;20048;-82
2023/12/25 10:46:41;;;;;;;19.08;9.15;;;14.00;96.70;;;;;;5018272;28;20107;-88
2023/12/25 10:49:13;;;;;;;21.20;10.18;;;14.00;96.70;;;;;;5028715;28;20045;-87
2023/12/25 10:51:46;;;;;;;19.27;8.82;;;14.00;96.70;;;;;;5032640;28;20062;-86
2023/12/25 10:54:20;;;;;;;20.08;9.77;;;14.10;96.70;;;;;;5037630;28;20075;-90
2023/12/25 10:56:50;;;;;;;16.95;8.82;;;14.20;96.70;;;;;;5027932;28;20279;-88
2023/12/25 10:59:24;;;;;;;18.80;12.55;;;14.20;96.70;;;;;;5043867;28;20056;-86
2023/12/25 11:02:09;;;;;;;22.38;9.15;;;14.20;96.70;;;;;;5037081;28;20510;-89
2023/12/25 11:04:39;;;;;;;21.17;8.77;;;14.30;96.70;;;;;;5039269;28;20877;-88
2023/12/25 11:07:07;;;;;;;28.35;14.55;;;14.30;96.70;;;;;;5043337;28;20053;-88
2023/12/25 11:10:39;;;;;;;17.10;8.32;;;14.30;96.70;;;;;;5074448;28;20510;-88
2023/12/25 11:16:54;;;;;;;21.63;7.55;;;14.30;96.70;;;;;;4993321;28;20049;-88
2023/12/25 11:19:23;;;;;;;13.98;6.97;;;14.40;96.70;;;;;;5000407;28;20172;-88
2023/12/25 11:22:15;;;;;;;18.38;7.05;;;14.50;96.70;;;;;;5002401;28;20160;-88
2023/12/25 11:25:54;;;;;;;14.80;5.93;;;14.40;96.70;;;;;;4982479;28;20072;-88
2023/12/25 11:29:39;;;;;;;20.95;10.73;;;14.50;96.70;;;;;;5017227;28;20172;-84
2023/12/25 11:37:42;;;;;;;15.68;6.40;;;14.40;96.70;;;;;;4990778;28;20055;-89
2023/12/25 11:41:02;;;;;;;22.52;7.22;;;14.50;96.70;;;;;;5024766;28;20115;-90
2023/12/25 11:56:23;;;;;;;17.65;5.22;;;14.60;96.70;;;;;;4906893;29;20518;-93
2023/12/25 11:58:52;;;;;;;13.50;4.75;;;14.50;96.70;;;;;;4948210;28;20051;-93
2023/12/25 12:01:22;;;;;;;19.65;6.03;;;14.50;96.70;;;;;;4957723;28;20074;-94
2023/12/25 12:03:51;;;;;;;14.80;3.95;;;14.50;96.70;;;;;;4975153;28;20053;-94
2023/12/25 12:06:23;;;;;;;12.77;3.95;;;14.50;96.70;;;;;;4970990;28;20141;-94
2023/12/25 12:08:52;;;;;;;15.02;4.63;;;14.50;96.70;;;;;;4961429;28;20504;-89
2023/12/25 12:11:24;;;;;;;16.75;5.25;;;14.50;96.70;;;;;;4987351;28;20050;-77
2023/12/25 12:18:52;;;;;;;9.95;4.53;;;14.60;96.70;;;;;;4956766;28;20041;-91
2023/12/25 13:29:15;;;;;;;13.95;3.83;;;14.60;96.70;;;;;;5085609;28;20092;-89
2023/12/25 13:31:50;;;;;;;12.27;3.88;;;14.60;96.70;;;;;;5064469;28;20094;-91
2023/12/25 13:34:20;;;;;;;12.13;4.00;;;14.60;96.70;;;;;;5062078;28;20520;-89
2023/12/25 13:41:52;;;;;;;12.27;4.15;;;14.60;96.70;;;;;;5071008;28;20120;-89
2023/12/25 13:45:35;;;;;;;9.13;3.50;;;14.50;96.70;;;;;;4993972;28;20878;-89
2023/12/25 13:49:24;;;;;;;11.73;3.63;;;14.50;96.70;;;;;;5031858;28;20609;-89
2023/12/25 13:52:49;;;;;;;10.82;3.20;;;14.50;96.70;;;;;;4986776;28;20069;-89
2023/12/25 13:57:13;;;;;;;14.32;4.03;;;14.50;96.70;;;;;;4979946;28;20140;-89
2023/12/25 14:11:51;;;;;;;12.88;3.97;;;14.40;96.70;;;;;;5088710;28;20097;-91
2023/12/25 14:28:16;;;;;;;;;;;;;;;;;;;;;
2023/12/25 15:17:08;;;;;;;;;;;;;;;;;;;;;
2023/12/25 18:03:32;;;;;;;23.23;12.63;;;13.50;96.70;;;;;;4907212;29;20423;-86
2023/12/25 18:06:23;;;;;;;25.23;12.60;;;13.50;96.70;;;;;;4931964;28;20078;-84
2023/12/25 18:09:07;;;;;;;25.80;14.18;;;13.50;96.70;;;;;;4988651;28;20889;-88
2023/12/25 18:38:04;;;;;;;29.00;15.05;;;13.50;96.70;;;;;;4897040;29;20084;-84
2023/12/25 18:53:29;;;;;;;25.77;13.70;;;13.20;96.70;;;;;;4949274;29;20051;-84
2023/12/25 19:07:23;;;;;;;31.25;20.45;;;13.30;96.70;;;;;;5061425;28;20052;-85
2023/12/25 19:10:09;;;;;;;31.65;20.20;;;13.20;96.70;;;;;;5038473;28;20083;-85
2023/12/25 19:13:14;;;;;;;37.13;22.85;;;13.30;96.70;;;;;;5036821;28;20234;-85
2023/12/25 19:15:52;;;;;;;27.58;15.35;;;13.20;96.70;;;;;;5054070;28;20147;-85
2023/12/25 19:42:20;;;;;;;24.23;13.43;;;13.30;96.70;;;;;;5077139;28;20031;-84
2023/12/25 19:50:52;;;;;;;21.25;12.60;;;13.00;96.70;;;;;;4853223;29;20121;-85
2023/12/25 19:53:52;;;;;;;;;;;;;;;;;;;;;
2023/12/25 19:56:51;;;;;;;20.02;12.82;;;13.30;96.70;;;;;;4813822;29;20061;-82
2023/12/25 20:00:10;;;;;;;24.33;14.10;;;13.30;96.70;;;;;;4863997;29;20060;-84
2023/12/25 20:03:05;;;;;;;24.88;14.95;;;13.30;96.70;;;;;;4907649;29;20059;-80
2023/12/25 20:05:54;;;;;;;22.20;14.15;;;13.30;96.70;;;;;;4862814;29;20073;-79
2023/12/25 20:08:57;;;;;;;22.40;13.98;;;13.30;96.70;;;;;;4909885;29;20056;-80
2023/12/25 20:12:01;;;;;;;23.10;15.85;;;13.30;96.70;;;;;;4882015;29;20555;-79
2023/12/25 20:24:12;;;;;;;31.65;19.05;;;13.20;96.70;;;;;;4778609;29;20078;-83
2023/12/25 20:27:43;;;;;;;29.40;18.48;;;13.20;96.70;;;;;;4861455;29;20064;-80
2023/12/25 20:31:06;;;;;;;29.23;18.10;;;13.20;96.70;;;;;;4808216;29;20514;-79
2023/12/25 20:41:32;;;;;;;26.05;13.70;;;13.30;96.70;;;;;;4859574;29;20068;-81
2023/12/25 20:44:01;;;;;;;21.08;13.23;;;13.30;96.70;;;;;;4893819;29;20059;-78
2023/12/25 20:47:11;;;;;;;24.55;13.93;;;13.30;96.70;;;;;;4899924;29;20150;-78
2023/12/25 20:49:52;;;;;;;26.50;17.45;;;13.30;96.70;;;;;;4912580;29;20139;-75
2023/12/25 20:53:37;;;;;;;;;;;;;;;;;;;;;
2023/12/25 21:04:25;;;;;;;23.30;13.40;;;13.20;96.70;;;;;;4952488;28;20050;-78
2023/12/25 21:07:52;;;;;;;23.73;14.45;;;13.20;96.70;;;;;;4929646;28;20059;-78
2023/12/25 21:10:46;;;;;;;22.45;17.52;;;13.10;96.70;;;;;;4913859;29;20864;-80
2023/12/25 21:13:15;;;;;;;19.85;15.10;;;13.10;96.70;;;;;;4942914;28;20055;-79
2023/12/25 21:16:00;;;;;;;24.50;15.88;;;13.10;96.70;;;;;;4930091;28;20065;-79
2023/12/25 21:18:30;;;;;;;24.92;16.15;;;13.10;96.70;;;;;;4935726;28;20218;-78
2023/12/25 21:21:42;;;;;;;25.20;15.20;;;13.20;96.70;;;;;;4922596;28;20061;-77
2023/12/25 21:24:21;;;;;;;;;;;13.00;96.70;;;;;;4938705;28;20054;-77
2023/12/25 21:27:17;;;;;;;30.30;15.70;;;12.90;96.70;;;;;;4933523;28;19927;-77
2023/12/25 21:29:54;;;;;;;32.80;17.02;;;12.90;96.70;;;;;;4923297;29;20082;-77
2023/12/25 21:33:15;;;;;;;31.52;16.73;;;12.80;96.70;;;;;;4920780;28;20057;-77
2023/12/25 21:37:13;;;;;;;25.35;14.75;;;12.80;96.70;;;;;;4873686;29;20244;-76
2023/12/25 21:44:18;;;;;;;22.85;13.00;;;12.80;96.70;;;;;;4857280;29;20948;-78
2023/12/25 21:46:50;;;;;;;20.27;12.50;;;12.80;96.70;;;;;;4885029;29;20066;-78
2023/12/25 21:49:19;;;;;;;25.45;13.30;;;12.80;96.70;;;;;;4895646;29;20060;-78
2023/12/25 21:51:48;;;;;;;21.50;13.73;;;12.80;96.70;;;;;;4894331;29;20052;-78
2023/12/25 21:54:20;;;;;;;20.27;13.07;;;12.90;96.70;;;;;;4905311;29;20063;-78
2023/12/25 21:56:50;;;;;;;19.52;12.77;;;12.90;96.70;;;;;;4882936;29;20056;-78
2023/12/25 21:59:19;;;;;;;23.98;12.75;;;12.90;96.70;;;;;;4883374;29;20615;-78
2023/12/25 22:01:51;;;;;;;21.00;12.35;;;13.00;96.70;;;;;;4875716;29;20056;-78
2023/12/25 22:04:23;;;;;;;19.55;12.57;;;12.90;96.70;;;;;;4891122;29;20455;-78
2023/12/25 22:06:54;;;;;;;22.65;12.80;;;12.90;96.70;;;;;;4876040;29;20201;-77
2023/12/25 22:09:27;;;;;;;24.50;13.75;;;12.90;96.70;;;;;;4870658;29;20052;-78
2023/12/25 22:11:57;;;;;;;22.67;14.80;;;12.90;96.70;;;;;;4885552;29;20056;-78
2023/12/25 22:14:29;;;;;;;22.75;14.02;;;13.00;96.70;;;;;;4949409;28;20530;-77
2023/12/25 22:16:58;;;;;;;24.05;15.65;;;13.00;96.70;;;;;;4993129;28;20050;-78
2023/12/25 22:19:26;;;;;;;21.42;13.50;;;12.90;96.70;;;;;;5038542;28;20060;-77
2023/12/25 22:21:58;;;;;;;23.75;12.57;;;12.90;96.70;;;;;;5022879;28;20061;-77
2023/12/25 22:24:29;;;;;;;19.20;12.70;;;12.90;96.70;;;;;;5022074;28;20056;-78
2023/12/25 22:26:57;;;;;;;19.70;12.60;;;12.90;96.70;;;;;;5029770;28;20136;-78
2023/12/25 22:29:29;;;;;;;21.60;11.18;;;12.90;96.70;;;;;;5031697;28;20041;-78
2023/12/25 22:31:58;;;;;;;22.15;12.98;;;12.90;96.70;;;;;;5004448;28;20422;-78
2023/12/25 22:34:26;;;;;;;20.15;11.93;;;12.90;96.70;;;;;;5021094;28;20048;-78
2023/12/25 22:36:55;;;;;;;20.95;11.85;;;12.90;96.70;;;;;;5008411;28;20056;-80
2023/12/25 22:39:27;;;;;;;20.02;11.60;;;12.90;96.70;;;;;;5012069;28;20468;-78
2023/12/25 22:42:04;;;;;;;21.23;10.55;;;12.80;96.70;;;;;;5006319;28;20068;-78
2023/12/25 22:44:33;;;;;;;18.20;10.63;;;12.90;96.70;;;;;;5024560;28;20064;-78
2023/12/25 22:47:03;;;;;;;14.50;9.23;;;12.90;96.70;;;;;;5039812;28;20127;-78
2023/12/25 22:49:32;;;;;;;16.17;7.65;;;12.90;96.70;;;;;;5029405;28;20470;-78
2023/12/25 22:54:51;;;;;;;14.40;6.38;;;12.80;96.70;;;;;;5018052;28;20064;-78
2023/12/25 22:57:24;;;;;;;11.60;5.53;;;12.80;96.70;;;;;;5013048;28;20055;-78
2023/12/25 22:59:57;;;;;;;14.90;6.45;;;12.70;96.70;;;;;;5037049;28;20061;-79
2023/12/25 23:02:28;;;;;;;16.38;6.93;;;12.70;96.70;;;;;;5021586;28;20053;-78
2023/12/25 23:04:57;;;;;;;11.70;6.30;;;12.80;96.70;;;;;;5035937;28;20058;-78
2023/12/25 23:07:26;;;;;;;14.70;5.63;;;12.80;96.70;;;;;;5038333;28;20055;-78
2023/12/25 23:10:00;;;;;;;12.77;6.88;;;12.80;96.70;;;;;;5026386;28;20067;-78
2023/12/25 23:12:31;;;;;;;10.77;6.35;;;12.90;96.70;;;;;;5038999;28;20063;-78
2023/12/25 23:15:00;;;;;;;34.35;16.25;;;12.90;96.70;;;;;;5047179;28;20540;-78
2023/12/25 23:17:29;;;;;;;21.13;10.55;;;12.80;96.70;;;;;;5041199;28;20075;-78
2023/12/25 23:19:57;;;;;;;24.30;11.25;;;12.80;96.70;;;;;;5038226;28;20110;-78
2023/12/25 23:22:25;;;;;;;17.05;7.78;;;12.80;96.70;;;;;;5029161;28;20056;-77
2023/12/25 23:24:55;;;;;;;15.02;6.45;;;12.80;96.70;;;;;;5021885;28;20075;-78
2023/12/25 23:27:25;;;;;;;20.83;11.23;;;12.70;96.70;;;;;;5031462;28;20605;-77
2023/12/25 23:29:56;;;;;;;15.05;7.47;;;12.70;96.70;;;;;;5022045;28;20055;-77
2023/12/25 23:32:24;;;;;;;16.35;6.20;;;12.70;96.70;;;;;;5039210;28;20087;-77
2023/12/25 23:34:53;;;;;;;21.30;10.15;;;12.70;96.70;;;;;;5016541;28;20053;-77
2023/12/25 23:37:21;;;;;;;18.38;8.93;;;12.70;96.70;;;;;;5037603;28;20083;-77
2023/12/25 23:43:49;;;;;;;14.90;4.32;;;12.60;96.70;;;;;;4984959;28;20083;-77
2023/12/25 23:51:01;;;;;;;11.88;3.50;;;12.60;96.70;;;;;;5056597;28;20080;-76
